Home PIREPS Pireps

Flight SLR8121

  • Submitted By: Vincent Fourni
  • Departure Airport: Bruxelles National (EBBR)
  • Arrival Airport: Palma de Mallorca / Son San Juan (LEPA)
  • Aircraft: B737-800 (OO-SLR)
  • Flight Time: 02.03
  • Date Submitted: 05/11/2017
  • Status: Accepted
Flight Details
Gross Revenue:
(130 load / € 0.00 per unit
€ 0.00
Fuel Cost:
(5783 fuel used @ 5.1 / unit)
€ 29,493.30

Additional Log Information:

View Log

Aircraft Used in flight is PMDG 737-800NGX Brussels Airlines Winglets
09:53 You Took off @ 170 Knots and Flaps at Position 3
Departure Weather
EBBR 050820Z 24006KT 9999 FEW025TCU 07/05 Q1009 NOSIGrn
09:53 You are Airborne and your Beacons are off
09:53 Landing Gear Up @ 174 Knots and 300 Feet
11:44 Landing Gear Down @ 184 Knots and 2700 Feet
11:47 You Landed @ 127 Knots and with -900 Vertical Speed
Arrival Weather
LEPA 051030Z VRB01KT 9999 FEW024 SCT030 20/13 Q1015 NOSIGrn
11:47 Your Landing was very hard
11:47 Paused
11:50 Unpaused
11:50 Brakes are On
11:51 Brussels Bel-Track1.0.1.2

Route Map

Corporate About Us Our Team Vacancies Information Fleet Route Network Rules and Regulations Operations Flight Schedules Event Center Tours Partners IVAO Vatsim Acars dev FSCB

fb Users Online Belgium Bennie Peeters, South Africa Marc Toussaint,
2 Pilot(s) and 159 Guest(s) Online
CMS by phpVMS - Design by Crazycreatives.com - Copyright © 2020 - Brussels Airlines Virtual